sensor_id;sensor_type;location;lat;lon;timestamp;P1;durP1;ratioP1;P2;durP2;ratioP2
12114;SDS011;6121;49.810;6.418;2023-03-31T00:01:48;50.40;;;7.50;;
12114;SDS011;6121;49.810;6.418;2023-03-31T00:04:17;72.57;;;10.18;;
12114;SDS011;6121;49.810;6.418;2023-03-31T00:06:43;84.65;;;11.65;;
12114;SDS011;6121;49.810;6.418;2023-03-31T00:09:10;71.45;;;10.10;;
12114;SDS011;6121;49.810;6.418;2023-03-31T00:11:38;57.80;;;8.52;;
12114;SDS011;6121;49.810;6.418;2023-03-31T00:14:05;59.67;;;8.75;;
12114;SDS011;6121;49.810;6.418;2023-03-31T00:16:35;52.67;;;7.85;;
12114;SDS011;6121;49.810;6.418;2023-03-31T00:19:04;53.50;;;8.02;;
12114;SDS011;6121;49.810;6.418;2023-03-31T00:21:34;58.77;;;8.63;;
12114;SDS011;6121;49.810;6.418;2023-03-31T00:24:08;53.85;;;8.07;;
12114;SDS011;6121;49.810;6.418;2023-03-31T00:26:36;58.80;;;8.75;;
12114;SDS011;6121;49.810;6.418;2023-03-31T00:29:03;55.83;;;8.25;;
12114;SDS011;6121;49.810;6.418;2023-03-31T00:31:30;49.85;;;7.65;;
12114;SDS011;6121;49.810;6.418;2023-03-31T00:33:56;61.58;;;9.05;;
12114;SDS011;6121;49.810;6.418;2023-03-31T00:36:23;52.58;;;7.88;;
12114;SDS011;6121;49.810;6.418;2023-03-31T00:38:56;56.05;;;8.30;;
12114;SDS011;6121;49.810;6.418;2023-03-31T00:41:27;47.70;;;7.28;;
12114;SDS011;6121;49.810;6.418;2023-03-31T00:47:04;55.20;;;8.10;;
12114;SDS011;6121;49.810;6.418;2023-03-31T00:49:38;59.95;;;8.73;;
12114;SDS011;6121;49.810;6.418;2023-03-31T00:52:10;57.55;;;8.43;;
12114;SDS011;6121;49.810;6.418;2023-03-31T00:54:43;69.35;;;9.95;;
12114;SDS011;6121;49.810;6.418;2023-03-31T00:57:12;55.53;;;8.10;;
12114;SDS011;6121;49.810;6.418;2023-03-31T00:59:50;46.45;;;7.10;;
12114;SDS011;6121;49.810;6.418;2023-03-31T01:02:20;50.50;;;7.60;;
12114;SDS011;6121;49.810;6.418;2023-03-31T01:04:51;50.92;;;7.63;;
12114;SDS011;6121;49.810;6.418;2023-03-31T01:07:37;47.42;;;7.22;;
12114;SDS011;6121;49.810;6.418;2023-03-31T01:10:08;59.80;;;8.70;;
12114;SDS011;6121;49.810;6.418;2023-03-31T01:12:37;57.63;;;8.53;;
12114;SDS011;6121;49.810;6.418;2023-03-31T01:15:06;57.03;;;8.38;;
12114;SDS011;6121;49.810;6.418;2023-03-31T01:17:33;67.27;;;9.60;;
12114;SDS011;6121;49.810;6.418;2023-03-31T01:28:09;77.28;;;10.80;;
12114;SDS011;6121;49.810;6.418;2023-03-31T01:33:43;64.63;;;9.27;;
12114;SDS011;6121;49.810;6.418;2023-03-31T01:36:39;48.70;;;7.32;;
12114;SDS011;6121;49.810;6.418;2023-03-31T01:42:38;65.18;;;9.32;;
12114;SDS011;6121;49.810;6.418;2023-03-31T01:45:47;59.95;;;8.75;;
12114;SDS011;6121;49.810;6.418;2023-03-31T01:48:25;71.00;;;10.07;;
12114;SDS011;6121;49.810;6.418;2023-03-31T01:50:59;51.97;;;7.78;;
12114;SDS011;6121;49.810;6.418;2023-03-31T02:01:52;47.47;;;7.20;;
12114;SDS011;6121;49.810;6.418;2023-03-31T02:04:46;71.23;;;10.07;;
12114;SDS011;6121;49.810;6.418;2023-03-31T02:07:19;59.85;;;8.77;;
12114;SDS011;6121;49.810;6.418;2023-03-31T02:09:55;57.83;;;8.55;;
12114;SDS011;6121;49.810;6.418;2023-03-31T02:12:25;61.22;;;8.88;;
12114;SDS011;6121;49.810;6.418;2023-03-31T02:14:53;66.53;;;9.48;;
12114;SDS011;6121;49.810;6.418;2023-03-31T02:17:22;60.83;;;8.82;;
12114;SDS011;6121;49.810;6.418;2023-03-31T02:19:58;50.75;;;7.70;;
12114;SDS011;6121;49.810;6.418;2023-03-31T02:22:30;55.50;;;8.25;;
12114;SDS011;6121;49.810;6.418;2023-03-31T02:25:00;61.42;;;8.80;;
12114;SDS011;6121;49.810;6.418;2023-03-31T02:27:32;54.33;;;8.10;;
12114;SDS011;6121;49.810;6.418;2023-03-31T02:30:02;64.57;;;9.32;;
12114;SDS011;6121;49.810;6.418;2023-03-31T02:32:31;52.17;;;7.75;;
12114;SDS011;6121;49.810;6.418;2023-03-31T02:35:02;52.22;;;7.85;;
12114;SDS011;6121;49.810;6.418;2023-03-31T02:37:29;52.67;;;7.80;;
12114;SDS011;6121;49.810;6.418;2023-03-31T02:39:56;58.20;;;8.47;;
12114;SDS011;6121;49.810;6.418;2023-03-31T02:42:25;61.25;;;8.80;;
12114;SDS011;6121;49.810;6.418;2023-03-31T02:44:52;55.63;;;8.20;;
12114;SDS011;6121;49.810;6.418;2023-03-31T02:47:19;56.17;;;8.23;;
12114;SDS011;6121;49.810;6.418;2023-03-31T02:49:47;52.78;;;7.80;;
12114;SDS011;6121;49.810;6.418;2023-03-31T02:55:14;51.63;;;7.63;;
12114;SDS011;6121;49.810;6.418;2023-03-31T02:57:59;54.93;;;8.03;;
12114;SDS011;6121;49.810;6.418;2023-03-31T03:09:01;41.40;;;6.43;;
12114;SDS011;6121;49.810;6.418;2023-03-31T03:17:14;44.22;;;6.80;;
12114;SDS011;6121;49.810;6.418;2023-03-31T03:19:58;49.15;;;7.32;;
12114;SDS011;6121;49.810;6.418;2023-03-31T03:22:25;58.40;;;8.52;;
12114;SDS011;6121;49.810;6.418;2023-03-31T03:24:51;52.80;;;7.80;;
12114;SDS011;6121;49.810;6.418;2023-03-31T03:27:18;55.63;;;8.18;;
12114;SDS011;6121;49.810;6.418;2023-03-31T03:29:47;45.10;;;6.88;;
12114;SDS011;6121;49.810;6.418;2023-03-31T03:32:13;53.92;;;7.88;;
12114;SDS011;6121;49.810;6.418;2023-03-31T03:34:39;52.60;;;7.72;;
12114;SDS011;6121;49.810;6.418;2023-03-31T03:37:05;44.23;;;6.70;;
12114;SDS011;6121;49.810;6.418;2023-03-31T03:39:31;62.75;;;8.98;;
12114;SDS011;6121;49.810;6.418;2023-03-31T03:41:57;57.10;;;8.35;;
12114;SDS011;6121;49.810;6.418;2023-03-31T03:44:23;48.67;;;7.30;;
12114;SDS011;6121;49.810;6.418;2023-03-31T03:46:49;52.08;;;7.63;;
12114;SDS011;6121;49.810;6.418;2023-03-31T03:49:15;57.97;;;8.45;;
12114;SDS011;6121;49.810;6.418;2023-03-31T03:51:41;47.38;;;7.10;;
12114;SDS011;6121;49.810;6.418;2023-03-31T03:54:07;54.30;;;7.95;;
12114;SDS011;6121;49.810;6.418;2023-03-31T03:56:33;66.05;;;9.43;;
12114;SDS011;6121;49.810;6.418;2023-03-31T03:58:59;41.50;;;6.40;;
12114;SDS011;6121;49.810;6.418;2023-03-31T04:01:25;58.97;;;8.52;;
12114;SDS011;6121;49.810;6.418;2023-03-31T04:03:51;53.30;;;7.80;;
12114;SDS011;6121;49.810;6.418;2023-03-31T04:06:17;50.83;;;7.63;;
12114;SDS011;6121;49.810;6.418;2023-03-31T04:08:43;60.17;;;8.68;;
12114;SDS011;6121;49.810;6.418;2023-03-31T04:11:16;53.17;;;7.90;;
12114;SDS011;6121;49.810;6.418;2023-03-31T04:13:43;57.57;;;8.43;;
12114;SDS011;6121;49.810;6.418;2023-03-31T04:16:09;66.82;;;9.50;;
12114;SDS011;6121;49.810;6.418;2023-03-31T04:18:36;71.15;;;10.18;;
12114;SDS011;6121;49.810;6.418;2023-03-31T04:21:07;49.42;;;7.45;;
12114;SDS011;6121;49.810;6.418;2023-03-31T04:23:37;64.47;;;9.23;;
12114;SDS011;6121;49.810;6.418;2023-03-31T04:26:09;53.85;;;7.93;;
12114;SDS011;6121;49.810;6.418;2023-03-31T04:28:37;62.05;;;8.93;;
12114;SDS011;6121;49.810;6.418;2023-03-31T04:31:08;54.22;;;7.95;;
12114;SDS011;6121;49.810;6.418;2023-03-31T04:33:39;56.57;;;8.27;;
12114;SDS011;6121;49.810;6.418;2023-03-31T04:36:06;56.35;;;8.27;;
12114;SDS011;6121;49.810;6.418;2023-03-31T04:38:42;60.78;;;8.73;;
12114;SDS011;6121;49.810;6.418;2023-03-31T04:41:14;60.63;;;8.70;;
12114;SDS011;6121;49.810;6.418;2023-03-31T04:43:41;57.63;;;8.27;;
12114;SDS011;6121;49.810;6.418;2023-03-31T04:46:07;48.10;;;7.20;;
12114;SDS011;6121;49.810;6.418;2023-03-31T04:48:34;65.87;;;9.30;;
12114;SDS011;6121;49.810;6.418;2023-03-31T04:51:00;53.95;;;8.00;;
12114;SDS011;6121;49.810;6.418;2023-03-31T04:53:26;54.50;;;8.15;;
12114;SDS011;6121;49.810;6.418;2023-03-31T04:55:53;62.90;;;9.02;;
12114;SDS011;6121;49.810;6.418;2023-03-31T04:58:19;59.42;;;8.65;;
12114;SDS011;6121;49.810;6.418;2023-03-31T05:00:45;77.30;;;10.90;;
12114;SDS011;6121;49.810;6.418;2023-03-31T05:03:11;83.75;;;11.52;;
12114;SDS011;6121;49.810;6.418;2023-03-31T05:05:37;85.00;;;11.73;;
12114;SDS011;6121;49.810;6.418;2023-03-31T05:08:03;75.95;;;10.70;;
12114;SDS011;6121;49.810;6.418;2023-03-31T05:10:29;82.82;;;11.50;;
12114;SDS011;6121;49.810;6.418;2023-03-31T05:12:55;71.60;;;10.10;;
12114;SDS011;6121;49.810;6.418;2023-03-31T05:15:22;84.20;;;11.65;;
12114;SDS011;6121;49.810;6.418;2023-03-31T05:17:51;87.03;;;12.07;;
12114;SDS011;6121;49.810;6.418;2023-03-31T05:20:17;88.70;;;12.32;;
12114;SDS011;6121;49.810;6.418;2023-03-31T05:22:54;87.93;;;12.23;;
12114;SDS011;6121;49.810;6.418;2023-03-31T05:25:20;68.55;;;10.02;;
12114;SDS011;6121;49.810;6.418;2023-03-31T05:27:47;86.35;;;11.95;;
12114;SDS011;6121;49.810;6.418;2023-03-31T05:30:14;87.93;;;12.52;;
12114;SDS011;6121;49.810;6.418;2023-03-31T05:32:41;99.35;;;13.60;;
12114;SDS011;6121;49.810;6.418;2023-03-31T05:35:07;64.15;;;9.30;;
12114;SDS011;6121;49.810;6.418;2023-03-31T05:37:34;83.40;;;11.60;;
12114;SDS011;6121;49.810;6.418;2023-03-31T05:40:00;84.10;;;11.75;;
12114;SDS011;6121;49.810;6.418;2023-03-31T05:42:28;75.18;;;10.65;;
12114;SDS011;6121;49.810;6.418;2023-03-31T05:44:55;71.72;;;10.20;;
12114;SDS011;6121;49.810;6.418;2023-03-31T05:47:21;58.63;;;8.57;;
12114;SDS011;6121;49.810;6.418;2023-03-31T05:49:47;69.40;;;9.90;;
12114;SDS011;6121;49.810;6.418;2023-03-31T05:52:13;71.15;;;10.13;;
12114;SDS011;6121;49.810;6.418;2023-03-31T05:54:42;80.10;;;11.27;;
12114;SDS011;6121;49.810;6.418;2023-03-31T05:57:08;74.78;;;10.55;;
12114;SDS011;6121;49.810;6.418;2023-03-31T05:59:35;87.33;;;11.97;;
12114;SDS011;6121;49.810;6.418;2023-03-31T06:02:04;83.15;;;11.50;;
12114;SDS011;6121;49.810;6.418;2023-03-31T06:04:30;84.90;;;11.82;;
12114;SDS011;6121;49.810;6.418;2023-03-31T06:06:57;72.55;;;10.30;;
12114;SDS011;6121;49.810;6.418;2023-03-31T06:09:23;91.45;;;12.65;;
12114;SDS011;6121;49.810;6.418;2023-03-31T06:11:50;77.03;;;10.88;;
12114;SDS011;6121;49.810;6.418;2023-03-31T06:14:16;74.20;;;10.45;;
12114;SDS011;6121;49.810;6.418;2023-03-31T06:16:42;108.13;;;14.45;;
12114;SDS011;6121;49.810;6.418;2023-03-31T06:19:08;69.00;;;9.97;;
12114;SDS011;6121;49.810;6.418;2023-03-31T06:21:34;84.88;;;11.65;;
12114;SDS011;6121;49.810;6.418;2023-03-31T06:24:00;80.13;;;11.27;;
12114;SDS011;6121;49.810;6.418;2023-03-31T06:26:26;122.70;;;16.15;;
12114;SDS011;6121;49.810;6.418;2023-03-31T06:28:52;98.68;;;13.48;;
12114;SDS011;6121;49.810;6.418;2023-03-31T06:31:19;142.63;;;18.63;;
12114;SDS011;6121;49.810;6.418;2023-03-31T06:33:47;136.70;;;17.90;;
12114;SDS011;6121;49.810;6.418;2023-03-31T06:36:14;131.57;;;17.45;;
12114;SDS011;6121;49.810;6.418;2023-03-31T06:38:42;127.30;;;16.85;;
12114;SDS011;6121;49.810;6.418;2023-03-31T06:41:08;134.75;;;17.73;;
12114;SDS011;6121;49.810;6.418;2023-03-31T06:43:37;121.57;;;16.10;;
12114;SDS011;6121;49.810;6.418;2023-03-31T06:46:03;159.57;;;20.53;;
12114;SDS011;6121;49.810;6.418;2023-03-31T06:48:30;117.65;;;15.65;;
12114;SDS011;6121;49.810;6.418;2023-03-31T06:51:00;105.43;;;14.23;;
12114;SDS011;6121;49.810;6.418;2023-03-31T06:53:27;117.05;;;15.60;;
12114;SDS011;6121;49.810;6.418;2023-03-31T06:55:53;176.15;;;22.45;;
12114;SDS011;6121;49.810;6.418;2023-03-31T06:58:19;104.32;;;14.05;;
12114;SDS011;6121;49.810;6.418;2023-03-31T07:00:48;139.77;;;18.33;;
12114;SDS011;6121;49.810;6.418;2023-03-31T07:03:14;110.75;;;14.93;;
12114;SDS011;6121;49.810;6.418;2023-03-31T07:05:47;197.90;;;25.20;;
12114;SDS011;6121;49.810;6.418;2023-03-31T07:08:14;105.70;;;14.32;;
12114;SDS011;6121;49.810;6.418;2023-03-31T07:10:42;135.95;;;17.77;;
12114;SDS011;6121;49.810;6.418;2023-03-31T07:13:08;121.93;;;16.15;;
12114;SDS011;6121;49.810;6.418;2023-03-31T07:15:34;168.27;;;21.73;;
12114;SDS011;6121;49.810;6.418;2023-03-31T07:18:00;128.85;;;17.15;;
12114;SDS011;6121;49.810;6.418;2023-03-31T07:20:29;119.10;;;15.93;;
12114;SDS011;6121;49.810;6.418;2023-03-31T07:22:55;141.13;;;18.53;;
12114;SDS011;6121;49.810;6.418;2023-03-31T07:25:21;105.63;;;14.35;;
12114;SDS011;6121;49.810;6.418;2023-03-31T07:27:47;133.13;;;17.60;;
12114;SDS011;6121;49.810;6.418;2023-03-31T07:30:14;108.00;;;14.70;;
12114;SDS011;6121;49.810;6.418;2023-03-31T07:32:47;153.30;;;19.80;;
12114;SDS011;6121;49.810;6.418;2023-03-31T07:35:15;116.88;;;15.57;;
12114;SDS011;6121;49.810;6.418;2023-03-31T07:37:43;123.80;;;16.48;;
12114;SDS011;6121;49.810;6.418;2023-03-31T07:40:12;114.40;;;15.25;;
12114;SDS011;6121;49.810;6.418;2023-03-31T07:42:43;121.77;;;16.20;;
12114;SDS011;6121;49.810;6.418;2023-03-31T07:45:11;103.90;;;14.10;;
12114;SDS011;6121;49.810;6.418;2023-03-31T07:47:37;117.03;;;15.73;;
12114;SDS011;6121;49.810;6.418;2023-03-31T07:50:04;124.00;;;16.63;;
12114;SDS011;6121;49.810;6.418;2023-03-31T07:52:31;120.63;;;16.23;;
12114;SDS011;6121;49.810;6.418;2023-03-31T07:54:58;131.70;;;17.60;;
12114;SDS011;6121;49.810;6.418;2023-03-31T07:57:24;111.45;;;14.98;;
12114;SDS011;6121;49.810;6.418;2023-03-31T07:59:50;106.55;;;14.55;;
12114;SDS011;6121;49.810;6.418;2023-03-31T08:02:16;113.47;;;15.25;;
12114;SDS011;6121;49.810;6.418;2023-03-31T08:04:43;127.60;;;17.10;;
12114;SDS011;6121;49.810;6.418;2023-03-31T08:07:10;120.82;;;16.17;;
12114;SDS011;6121;49.810;6.418;2023-03-31T08:09:37;140.98;;;18.60;;
12114;SDS011;6121;49.810;6.418;2023-03-31T08:12:04;93.07;;;12.90;;
12114;SDS011;6121;49.810;6.418;2023-03-31T08:14:31;121.00;;;16.23;;
12114;SDS011;6121;49.810;6.418;2023-03-31T08:16:57;131.23;;;17.47;;
12114;SDS011;6121;49.810;6.418;2023-03-31T08:19:24;107.97;;;14.70;;
12114;SDS011;6121;49.810;6.418;2023-03-31T08:21:51;131.05;;;17.42;;
12114;SDS011;6121;49.810;6.418;2023-03-31T08:24:17;103.28;;;14.13;;
12114;SDS011;6121;49.810;6.418;2023-03-31T08:26:44;123.97;;;16.58;;
12114;SDS011;6121;49.810;6.418;2023-03-31T08:29:10;117.22;;;15.75;;
12114;SDS011;6121;49.810;6.418;2023-03-31T08:31:36;103.22;;;14.10;;
12114;SDS011;6121;49.810;6.418;2023-03-31T08:34:02;103.88;;;14.23;;
12114;SDS011;6121;49.810;6.418;2023-03-31T08:36:29;127.97;;;17.08;;
12114;SDS011;6121;49.810;6.418;2023-03-31T08:38:55;139.00;;;17.50;;
12114;SDS011;6121;49.810;6.418;2023-03-31T08:41:26;110.05;;;14.32;;
12114;SDS011;6121;49.810;6.418;2023-03-31T08:44:10;116.63;;;15.23;;
12114;SDS011;6121;49.810;6.418;2023-03-31T08:46:45;136.27;;;17.67;;
12114;SDS011;6121;49.810;6.418;2023-03-31T08:49:13;111.43;;;14.82;;
12114;SDS011;6121;49.810;6.418;2023-03-31T08:51:46;109.35;;;14.57;;
12114;SDS011;6121;49.810;6.418;2023-03-31T08:54:15;109.13;;;14.63;;
12114;SDS011;6121;49.810;6.418;2023-03-31T08:56:53;115.28;;;15.30;;
12114;SDS011;6121;49.810;6.418;2023-03-31T08:59:25;117.22;;;15.80;;
12114;SDS011;6121;49.810;6.418;2023-03-31T09:15:28;117.28;;;15.95;;
12114;SDS011;6121;49.810;6.418;2023-03-31T09:18:33;101.30;;;14.07;;
12114;SDS011;6121;49.810;6.418;2023-03-31T09:23:42;128.25;;;17.10;;
12114;SDS011;6121;49.810;6.418;2023-03-31T09:29:09;119.40;;;16.20;;
12114;SDS011;6121;49.810;6.418;2023-03-31T09:31:43;144.27;;;19.17;;
12114;SDS011;6121;49.810;6.418;2023-03-31T09:34:12;101.50;;;13.97;;
12114;SDS011;6121;49.810;6.418;2023-03-31T09:36:41;136.45;;;17.95;;
12114;SDS011;6121;49.810;6.418;2023-03-31T09:39:10;118.68;;;15.90;;
12114;SDS011;6121;49.810;6.418;2023-03-31T09:41:39;113.05;;;15.20;;
12114;SDS011;6121;49.810;6.418;2023-03-31T09:47:16;113.32;;;15.43;;
12114;SDS011;6121;49.810;6.418;2023-03-31T09:50:05;131.90;;;17.50;;
12114;SDS011;6121;49.810;6.418;2023-03-31T09:52:33;116.22;;;15.52;;
12114;SDS011;6121;49.810;6.418;2023-03-31T09:58:13;129.95;;;17.30;;
12114;SDS011;6121;49.810;6.418;2023-03-31T10:00:41;131.07;;;17.30;;
12114;SDS011;6121;49.810;6.418;2023-03-31T10:03:15;121.13;;;16.03;;
12114;SDS011;6121;49.810;6.418;2023-03-31T10:05:51;163.68;;;21.05;;
12114;SDS011;6121;49.810;6.418;2023-03-31T10:11:17;109.60;;;14.60;;
12114;SDS011;6121;49.810;6.418;2023-03-31T10:16:14;179.60;;;23.02;;
12114;SDS011;6121;49.810;6.418;2023-03-31T10:18:47;143.85;;;18.55;;
12114;SDS011;6121;49.810;6.418;2023-03-31T10:21:19;130.80;;;17.17;;
12114;SDS011;6121;49.810;6.418;2023-03-31T10:23:48;137.13;;;17.80;;
12114;SDS011;6121;49.810;6.418;2023-03-31T10:26:16;170.63;;;21.65;;
12114;SDS011;6121;49.810;6.418;2023-03-31T10:28:46;121.75;;;16.00;;
12114;SDS011;6121;49.810;6.418;2023-03-31T10:31:17;113.32;;;15.05;;
12114;SDS011;6121;49.810;6.418;2023-03-31T10:33:47;120.07;;;15.80;;
12114;SDS011;6121;49.810;6.418;2023-03-31T10:36:19;165.77;;;21.35;;
12114;SDS011;6121;49.810;6.418;2023-03-31T10:38:49;144.60;;;18.67;;
12114;SDS011;6121;49.810;6.418;2023-03-31T10:41:19;125.60;;;16.42;;
12114;SDS011;6121;49.810;6.418;2023-03-31T10:43:51;114.78;;;15.13;;
12114;SDS011;6121;49.810;6.418;2023-03-31T10:46:20;116.03;;;15.27;;
12114;SDS011;6121;49.810;6.418;2023-03-31T10:49:24;112.70;;;14.95;;
12114;SDS011;6121;49.810;6.418;2023-03-31T10:51:52;139.45;;;18.08;;
12114;SDS011;6121;49.810;6.418;2023-03-31T10:54:20;120.53;;;16.02;;
12114;SDS011;6121;49.810;6.418;2023-03-31T10:56:47;132.23;;;17.52;;
12114;SDS011;6121;49.810;6.418;2023-03-31T11:16:04;168.38;;;21.73;;
12114;SDS011;6121;49.810;6.418;2023-03-31T11:19:03;99.22;;;13.40;;
12114;SDS011;6121;49.810;6.418;2023-03-31T11:21:45;89.85;;;12.20;;
12114;SDS011;6121;49.810;6.418;2023-03-31T11:29:47;100.55;;;13.35;;
12114;SDS011;6121;49.810;6.418;2023-03-31T11:46:05;184.80;;;23.23;;
12114;SDS011;6121;49.810;6.418;2023-03-31T11:51:26;107.20;;;14.17;;
12114;SDS011;6121;49.810;6.418;2023-03-31T11:54:09;127.25;;;16.67;;
12114;SDS011;6121;49.810;6.418;2023-03-31T11:56:58;117.53;;;15.50;;
12114;SDS011;6121;49.810;6.418;2023-03-31T11:59:31;106.07;;;14.03;;
12114;SDS011;6121;49.810;6.418;2023-03-31T12:02:03;124.28;;;16.25;;
12114;SDS011;6121;49.810;6.418;2023-03-31T12:04:42;101.55;;;13.55;;
12114;SDS011;6121;49.810;6.418;2023-03-31T12:12:53;115.85;;;15.32;;
12114;SDS011;6121;49.810;6.418;2023-03-31T12:15:41;126.45;;;16.63;;
12114;SDS011;6121;49.810;6.418;2023-03-31T12:18:17;130.75;;;17.10;;
12114;SDS011;6121;49.810;6.418;2023-03-31T12:20:51;99.68;;;13.40;;
12114;SDS011;6121;49.810;6.418;2023-03-31T12:23:24;94.30;;;12.65;;
12114;SDS011;6121;49.810;6.418;2023-03-31T12:28:52;109.97;;;14.48;;
12114;SDS011;6121;49.810;6.418;2023-03-31T12:31:25;108.55;;;14.32;;
12114;SDS011;6121;49.810;6.418;2023-03-31T12:33:54;94.78;;;12.73;;
12114;SDS011;6121;49.810;6.418;2023-03-31T12:36:37;150.65;;;19.35;;
12114;SDS011;6121;49.810;6.418;2023-03-31T12:42:33;129.20;;;16.75;;
12114;SDS011;6121;49.810;6.418;2023-03-31T12:45:29;134.30;;;17.38;;
12114;SDS011;6121;49.810;6.418;2023-03-31T12:56:06;191.90;;;24.42;;
12114;SDS011;6121;49.810;6.418;2023-03-31T12:58:39;93.15;;;12.63;;
12114;SDS011;6121;49.810;6.418;2023-03-31T13:11:39;107.60;;;14.20;;
12114;SDS011;6121;49.810;6.418;2023-03-31T13:16:46;114.43;;;14.95;;
12114;SDS011;6121;49.810;6.418;2023-03-31T13:19:27;123.32;;;16.10;;
12114;SDS011;6121;49.810;6.418;2023-03-31T13:22:00;109.38;;;14.43;;
12114;SDS011;6121;49.810;6.418;2023-03-31T13:24:29;123.45;;;16.17;;
12114;SDS011;6121;49.810;6.418;2023-03-31T13:26:57;111.47;;;14.63;;
12114;SDS011;6121;49.810;6.418;2023-03-31T13:29:43;102.88;;;13.70;;
12114;SDS011;6121;49.810;6.418;2023-03-31T13:32:24;110.88;;;14.57;;
12114;SDS011;6121;49.810;6.418;2023-03-31T13:40:36;122.22;;;15.90;;
12114;SDS011;6121;49.810;6.418;2023-03-31T13:43:58;105.45;;;13.93;;
12114;SDS011;6121;49.810;6.418;2023-03-31T13:49:48;101.82;;;13.50;;
12114;SDS011;6121;49.810;6.418;2023-03-31T13:52:34;136.15;;;17.60;;
12114;SDS011;6121;49.810;6.418;2023-03-31T14:06:33;145.65;;;18.70;;
12114;SDS011;6121;49.810;6.418;2023-03-31T14:09:04;109.90;;;14.52;;
12114;SDS011;6121;49.810;6.418;2023-03-31T14:11:47;111.82;;;14.55;;
12114;SDS011;6121;49.810;6.418;2023-03-31T14:14:15;134.27;;;17.38;;
12114;SDS011;6121;49.810;6.418;2023-03-31T14:16:43;132.13;;;17.08;;
12114;SDS011;6121;49.810;6.418;2023-03-31T14:19:20;142.63;;;18.27;;
12114;SDS011;6121;49.810;6.418;2023-03-31T14:30:36;131.37;;;17.03;;
12114;SDS011;6121;49.810;6.418;2023-03-31T14:35:56;134.77;;;17.40;;
12114;SDS011;6121;49.810;6.418;2023-03-31T14:38:23;120.20;;;15.73;;
12114;SDS011;6121;49.810;6.418;2023-03-31T14:40:53;113.38;;;14.88;;
12114;SDS011;6121;49.810;6.418;2023-03-31T14:43:26;127.57;;;16.50;;
12114;SDS011;6121;49.810;6.418;2023-03-31T14:46:05;140.10;;;17.95;;
12114;SDS011;6121;49.810;6.418;2023-03-31T14:48:33;129.02;;;16.63;;
12114;SDS011;6121;49.810;6.418;2023-03-31T14:51:09;124.78;;;16.23;;
12114;SDS011;6121;49.810;6.418;2023-03-31T14:53:38;123.50;;;16.08;;
12114;SDS011;6121;49.810;6.418;2023-03-31T14:56:06;177.52;;;22.52;;
12114;SDS011;6121;49.810;6.418;2023-03-31T14:58:36;117.17;;;15.23;;
12114;SDS011;6121;49.810;6.418;2023-03-31T15:01:06;103.65;;;13.65;;
12114;SDS011;6121;49.810;6.418;2023-03-31T15:03:34;126.47;;;16.43;;
12114;SDS011;6121;49.810;6.418;2023-03-31T15:06:09;160.63;;;20.47;;
12114;SDS011;6121;49.810;6.418;2023-03-31T15:08:35;109.65;;;14.40;;
12114;SDS011;6121;49.810;6.418;2023-03-31T15:11:03;102.63;;;13.63;;
12114;SDS011;6121;49.810;6.418;2023-03-31T15:16:27;133.10;;;17.13;;
12114;SDS011;6121;49.810;6.418;2023-03-31T15:19:12;94.80;;;12.63;;
12114;SDS011;6121;49.810;6.418;2023-03-31T15:21:41;95.55;;;12.65;;
12114;SDS011;6121;49.810;6.418;2023-03-31T15:24:10;94.38;;;12.57;;
12114;SDS011;6121;49.810;6.418;2023-03-31T15:26:39;155.00;;;19.75;;
12114;SDS011;6121;49.810;6.418;2023-03-31T15:29:15;108.05;;;14.05;;
12114;SDS011;6121;49.810;6.418;2023-03-31T15:31:45;97.40;;;12.90;;
12114;SDS011;6121;49.810;6.418;2023-03-31T15:34:24;104.30;;;13.70;;
12114;SDS011;6121;49.810;6.418;2023-03-31T15:36:57;96.90;;;12.98;;
12114;SDS011;6121;49.810;6.418;2023-03-31T15:39:24;121.13;;;15.63;;
12114;SDS011;6121;49.810;6.418;2023-03-31T15:41:52;83.27;;;11.33;;
12114;SDS011;6121;49.810;6.418;2023-03-31T15:47:07;124.60;;;16.07;;
12114;SDS011;6121;49.810;6.418;2023-03-31T15:49:50;99.63;;;13.23;;
12114;SDS011;6121;49.810;6.418;2023-03-31T15:52:22;128.73;;;16.45;;
12114;SDS011;6121;49.810;6.418;2023-03-31T15:54:52;103.93;;;13.57;;
12114;SDS011;6121;49.810;6.418;2023-03-31T15:57:18;114.00;;;14.80;;
12114;SDS011;6121;49.810;6.418;2023-03-31T15:59:50;116.57;;;15.20;;
12114;SDS011;6121;49.810;6.418;2023-03-31T16:02:53;142.85;;;18.30;;
12114;SDS011;6121;49.810;6.418;2023-03-31T16:05:20;115.85;;;15.30;;
12114;SDS011;6121;49.810;6.418;2023-03-31T16:07:58;144.10;;;18.57;;
12114;SDS011;6121;49.810;6.418;2023-03-31T16:10:24;136.02;;;17.63;;
12114;SDS011;6121;49.810;6.418;2023-03-31T16:12:55;118.90;;;15.63;;
12114;SDS011;6121;49.810;6.418;2023-03-31T16:15:29;155.90;;;20.17;;
12114;SDS011;6121;49.810;6.418;2023-03-31T16:18:02;151.07;;;19.60;;
12114;SDS011;6121;49.810;6.418;2023-03-31T16:20:34;132.18;;;17.40;;
12114;SDS011;6121;49.810;6.418;2023-03-31T16:23:02;96.05;;;12.98;;
12114;SDS011;6121;49.810;6.418;2023-03-31T16:25:39;153.50;;;19.98;;
12114;SDS011;6121;49.810;6.418;2023-03-31T16:28:06;115.50;;;15.18;;
12114;SDS011;6121;49.810;6.418;2023-03-31T16:30:38;142.43;;;18.42;;
12114;SDS011;6121;49.810;6.418;2023-03-31T16:33:13;128.15;;;16.77;;
12114;SDS011;6121;49.810;6.418;2023-03-31T16:35:47;146.85;;;18.98;;
12114;SDS011;6121;49.810;6.418;2023-03-31T16:38:18;140.40;;;18.23;;
12114;SDS011;6121;49.810;6.418;2023-03-31T16:40:47;131.13;;;17.13;;
12114;SDS011;6121;49.810;6.418;2023-03-31T16:43:18;131.68;;;17.08;;
12114;SDS011;6121;49.810;6.418;2023-03-31T16:45:47;160.60;;;20.52;;
12114;SDS011;6121;49.810;6.418;2023-03-31T16:48:15;124.80;;;16.33;;
12114;SDS011;6121;49.810;6.418;2023-03-31T16:50:43;140.60;;;18.45;;
12114;SDS011;6121;49.810;6.418;2023-03-31T16:53:21;116.57;;;15.32;;
12114;SDS011;6121;49.810;6.418;2023-03-31T16:55:49;146.82;;;19.10;;
12114;SDS011;6121;49.810;6.418;2023-03-31T16:58:15;112.03;;;14.80;;
12114;SDS011;6121;49.810;6.418;2023-03-31T17:00:42;119.32;;;15.77;;
12114;SDS011;6121;49.810;6.418;2023-03-31T17:03:09;122.17;;;16.00;;
12114;SDS011;6121;49.810;6.418;2023-03-31T17:05:40;143.20;;;18.70;;
12114;SDS011;6121;49.810;6.418;2023-03-31T17:08:08;126.30;;;16.50;;
12114;SDS011;6121;49.810;6.418;2023-03-31T17:10:35;138.57;;;17.80;;
12114;SDS011;6121;49.810;6.418;2023-03-31T17:13:02;108.32;;;14.40;;
12114;SDS011;6121;49.810;6.418;2023-03-31T17:15:28;131.05;;;17.08;;
12114;SDS011;6121;49.810;6.418;2023-03-31T17:17:55;138.87;;;18.03;;
12114;SDS011;6121;49.810;6.418;2023-03-31T17:20:25;133.25;;;17.50;;
12114;SDS011;6121;49.810;6.418;2023-03-31T17:22:52;123.70;;;16.23;;
12114;SDS011;6121;49.810;6.418;2023-03-31T17:25:18;123.10;;;16.23;;
12114;SDS011;6121;49.810;6.418;2023-03-31T17:27:45;101.93;;;13.63;;
12114;SDS011;6121;49.810;6.418;2023-03-31T17:30:11;114.68;;;15.30;;
12114;SDS011;6121;49.810;6.418;2023-03-31T17:32:37;122.67;;;16.33;;
12114;SDS011;6121;49.810;6.418;2023-03-31T17:35:04;115.53;;;15.35;;
12114;SDS011;6121;49.810;6.418;2023-03-31T17:37:31;145.37;;;18.93;;
12114;SDS011;6121;49.810;6.418;2023-03-31T17:39:57;99.95;;;13.68;;
12114;SDS011;6121;49.810;6.418;2023-03-31T17:42:23;121.53;;;16.13;;
12114;SDS011;6121;49.810;6.418;2023-03-31T17:44:49;115.50;;;15.43;;
12114;SDS011;6121;49.810;6.418;2023-03-31T17:47:16;127.70;;;16.95;;
12114;SDS011;6121;49.810;6.418;2023-03-31T17:49:43;119.00;;;15.85;;
12114;SDS011;6121;49.810;6.418;2023-03-31T17:52:09;111.72;;;14.82;;
12114;SDS011;6121;49.810;6.418;2023-03-31T17:54:35;135.77;;;17.85;;